createdAt,value
2022-12-14T00:01:38.894Z,100516.16
2022-12-14T00:04:09.768Z,100514.19
2022-12-14T00:06:37.148Z,100515.41
2022-12-14T00:09:06.065Z,100515.19
2022-12-14T00:11:34.413Z,100517.03
2022-12-14T00:14:03.519Z,100516.16
2022-12-14T00:16:32.994Z,100499.66
2022-12-14T00:19:01.732Z,100513.63
2022-12-14T00:21:28.915Z,100512.09
2022-12-14T00:23:59.819Z,100499.00
2022-12-14T00:26:30.844Z,100502.00
2022-12-14T00:28:59.453Z,100500.31
2022-12-14T00:31:26.703Z,100498.56
2022-12-14T00:33:54.700Z,100504.38
2022-12-14T00:36:21.936Z,100496.94
2022-12-14T00:38:48.965Z,100493.59
2022-12-14T00:41:16.080Z,100489.34
2022-12-14T00:43:43.402Z,100482.19
2022-12-14T00:46:11.067Z,100496.13
2022-12-14T00:48:38.287Z,100479.84
2022-12-14T00:51:06.351Z,100480.94
2022-12-14T00:53:33.442Z,100472.41
2022-12-14T00:56:07.477Z,100475.69
2022-12-14T00:58:35.279Z,100473.25
2022-12-14T01:01:09.956Z,100460.19
2022-12-14T01:03:37.271Z,100454.38
2022-12-14T01:06:04.604Z,100454.47
2022-12-14T01:08:37.479Z,100447.78
2022-12-14T01:11:07.662Z,100450.19
2022-12-14T01:13:36.022Z,100448.53
2022-12-14T01:16:12.637Z,100443.34
2022-12-14T01:18:42.217Z,100445.88
2022-12-14T01:21:10.870Z,100446.69
2022-12-14T01:23:38.034Z,100438.56
2022-12-14T01:26:06.567Z,100445.47
2022-12-14T01:28:35.338Z,100440.09
2022-12-14T01:31:12.198Z,100444.59
2022-12-14T01:33:39.943Z,100444.59
2022-12-14T01:36:10.140Z,100427.13
2022-12-14T01:38:37.671Z,100442.50
2022-12-14T01:41:07.578Z,100442.97
2022-12-14T01:43:49.069Z,100458.47
2022-12-14T01:46:39.134Z,100453.22
2022-12-14T01:49:19.199Z,100450.69
2022-12-14T01:51:54.896Z,100444.41
2022-12-14T01:54:22.447Z,100449.59
2022-12-14T01:56:50.174Z,100443.63
2022-12-14T01:59:23.154Z,100440.22
2022-12-14T02:01:52.227Z,100427.81
2022-12-14T02:04:20.160Z,100433.28
2022-12-14T02:06:49.273Z,100431.75
2022-12-14T02:09:23.425Z,100433.28
2022-12-14T02:12:14.843Z,100429.03
2022-12-14T02:14:42.222Z,100421.22
2022-12-14T02:17:12.099Z,100422.75
2022-12-14T02:19:41.682Z,100407.50
2022-12-14T02:22:27.280Z,100426.63
2022-12-14T02:25:00.693Z,100423.22
2022-12-14T02:27:42.888Z,100418.16
2022-12-14T02:30:18.767Z,100425.63
2022-12-14T02:33:09.946Z,100411.78
2022-12-14T02:35:42.675Z,100413.75
2022-12-14T02:38:15.743Z,100419.47
2022-12-14T02:41:15.142Z,100410.38
2022-12-14T02:43:57.387Z,100409.59
2022-12-14T02:46:39.393Z,100404.22
2022-12-14T02:49:33.438Z,100403.13
2022-12-14T02:52:14.505Z,100399.59
2022-12-14T02:54:47.490Z,100395.97
2022-12-14T02:57:29.693Z,100395.88
2022-12-14T03:00:00.389Z,100375.69
2022-12-14T03:02:29.547Z,100383.59
2022-12-14T03:04:56.754Z,100389.41
2022-12-14T03:07:23.877Z,100391.84
2022-12-14T03:09:52.251Z,100390.75
2022-12-14T03:12:20.655Z,100386.31
2022-12-14T03:14:52.531Z,100382.59
2022-12-14T03:17:25.415Z,100385.78
2022-12-14T03:20:12.965Z,100371.41
2022-12-14T03:22:47.170Z,100351.53
2022-12-14T03:25:20.719Z,100346.25
2022-12-14T03:28:13.273Z,100354.81
2022-12-14T03:31:00.076Z,100354.91
2022-12-14T03:33:30.325Z,100354.72
2022-12-14T03:36:07.501Z,100350.53
2022-12-14T03:38:47.385Z,100346.03
2022-12-14T03:41:34.492Z,100330.22
2022-12-14T03:44:29.779Z,100344.19
2022-12-14T03:47:27.293Z,100348.31
2022-12-14T03:50:02.086Z,100344.84
2022-12-14T03:52:37.074Z,100339.78
2022-12-14T03:55:38.951Z,100325.84
2022-12-14T03:58:07.412Z,100331.66
2022-12-14T04:00:51.246Z,100327.69
2022-12-14T04:04:15.720Z,100335.38
2022-12-14T04:06:52.571Z,100330.13
2022-12-14T04:09:40.268Z,100324.84
2022-12-14T04:12:39.030Z,100316.81
2022-12-14T04:15:34.155Z,100311.66
2022-12-14T04:18:26.251Z,100315.81
2022-12-14T04:21:03.431Z,100314.59
2022-12-14T04:24:01.388Z,100305.69
2022-12-14T04:26:34.791Z,100311.97
2022-12-14T04:29:30.136Z,100309.03
2022-12-14T04:32:25.298Z,100310.75
2022-12-14T04:35:02.250Z,100308.88
2022-12-14T04:37:31.068Z,100315.59
2022-12-14T04:40:07.566Z,100303.28
2022-12-14T04:42:48.499Z,100305.91
2022-12-14T04:45:24.902Z,100292.75
2022-12-14T04:48:02.496Z,100299.00
2022-12-14T04:50:36.614Z,100300.44
2022-12-14T04:53:20.931Z,100290.09
2022-12-14T04:55:53.371Z,100279.47
2022-12-14T04:58:26.233Z,100291.00
2022-12-14T05:01:11.876Z,100289.22
2022-12-14T05:04:12.923Z,100289.88
2022-12-14T05:06:51.701Z,100284.72
2022-12-14T05:09:39.167Z,100278.91
2022-12-14T05:12:16.930Z,100285.59
2022-12-14T05:14:49.716Z,100283.84
2022-12-14T05:17:17.970Z,100279.56
2022-12-14T05:19:50.608Z,100288.78
2022-12-14T05:22:18.357Z,100274.06
2022-12-14T05:24:45.459Z,100273.19
2022-12-14T05:27:12.795Z,100272.31
2022-12-14T05:29:40.047Z,100273.97
2022-12-14T05:32:11.006Z,100268.59
2022-12-14T05:34:38.370Z,100274.94
2022-12-14T05:37:06.788Z,100270.97
2022-12-14T05:39:33.801Z,100268.75
2022-12-14T05:42:00.879Z,100282.59
2022-12-14T05:44:27.882Z,100277.22
2022-12-14T05:46:55.617Z,100281.00
2022-12-14T05:49:22.649Z,100272.25
2022-12-14T05:51:49.750Z,100265.56
2022-12-14T05:54:17.059Z,100267.66
2022-12-14T05:56:44.087Z,100264.66
2022-12-14T05:59:15.439Z,100282.13
2022-12-14T06:01:43.882Z,100272.81
2022-12-14T06:04:15.664Z,100259.22
2022-12-14T06:06:43.116Z,100247.13
2022-12-14T06:09:14.133Z,100250.91
2022-12-14T06:11:41.752Z,100252.06
2022-12-14T06:14:09.858Z,100255.34
2022-12-14T06:16:40.203Z,100255.91
2022-12-14T06:19:07.870Z,100247.13
2022-12-14T06:21:40.007Z,100252.03
2022-12-14T06:24:08.062Z,100244.78
2022-12-14T06:26:42.877Z,100236.84
2022-12-14T06:29:18.553Z,100245.78
2022-12-14T06:31:45.704Z,100248.94
2022-12-14T06:34:17.596Z,100255.75
2022-12-14T06:36:46.923Z,100251.22
2022-12-14T06:39:16.424Z,100251.75
2022-12-14T06:41:43.922Z,100255.78
2022-12-14T06:44:14.075Z,100250.66
2022-12-14T06:46:41.654Z,100249.53
2022-12-14T06:49:13.943Z,100248.53
2022-12-14T06:51:42.068Z,100241.09
2022-12-14T06:54:13.887Z,100255.03
2022-12-14T06:56:43.066Z,100260.84
2022-12-14T06:59:11.233Z,100254.78
2022-12-14T07:01:41.588Z,100259.63
2022-12-14T07:04:10.193Z,100263.75
2022-12-14T07:06:40.074Z,100266.16
2022-12-14T07:09:11.652Z,100270.56
2022-12-14T07:11:38.761Z,100276.25
2022-12-14T07:14:12.474Z,100266.81
2022-12-14T07:16:40.020Z,100267.56
2022-12-14T07:19:07.455Z,100268.78
2022-12-14T07:21:34.512Z,100251.56
2022-12-14T07:24:01.879Z,100265.75
2022-12-14T07:26:29.994Z,100268.28
2022-12-14T07:29:00.523Z,100269.69
2022-12-14T07:31:28.999Z,100269.44
2022-12-14T07:33:59.505Z,100269.44
2022-12-14T07:36:28.831Z,100267.69
2022-12-14T07:38:56.951Z,100264.81
2022-12-14T07:41:30.415Z,100263.47
2022-12-14T07:43:59.418Z,100266.28
2022-12-14T07:46:28.475Z,100262.94
2022-12-14T07:48:57.676Z,100263.97
2022-12-14T07:51:27.594Z,100272.13
2022-12-14T07:53:54.890Z,100275.94
2022-12-14T07:56:27.903Z,100265.28
2022-12-14T07:58:57.272Z,100274.47
2022-12-14T08:01:26.860Z,100264.56
2022-12-14T08:03:57.109Z,100280.88
2022-12-14T08:06:26.769Z,100268.84
2022-12-14T08:08:54.490Z,100281.53
2022-12-14T08:11:24.922Z,100278.00
2022-12-14T08:13:54.914Z,100273.13
2022-12-14T08:16:22.768Z,100281.41
2022-12-14T08:18:49.983Z,100276.50
2022-12-14T08:21:20.887Z,100280.88
2022-12-14T08:23:49.275Z,100287.28
2022-12-14T08:26:16.505Z,100281.78
2022-12-14T08:28:43.662Z,100291.84
2022-12-14T08:31:16.117Z,100289.06
2022-12-14T08:33:44.341Z,100289.94
2022-12-14T08:36:17.914Z,100287.19
2022-12-14T08:38:45.308Z,100298.13
2022-12-14T08:41:14.264Z,100297.91
2022-12-14T08:43:41.676Z,100292.13
2022-12-14T08:46:10.113Z,100296.63
2022-12-14T08:48:37.817Z,100294.38
2022-12-14T08:51:08.332Z,100295.81
2022-12-14T08:53:37.367Z,100286.25
2022-12-14T08:56:10.902Z,100284.72
2022-12-14T08:58:39.289Z,100287.75
2022-12-14T09:01:15.809Z,100285.16
2022-12-14T09:03:47.131Z,100293.19
2022-12-14T09:06:17.055Z,100288.66
2022-12-14T09:08:45.233Z,100292.41
2022-12-14T09:11:14.474Z,100299.91
2022-12-14T09:13:42.497Z,100293.81
2022-12-14T09:16:20.661Z,100283.75
2022-12-14T09:18:49.216Z,100296.25
2022-12-14T09:21:18.052Z,100293.44
2022-12-14T09:23:45.835Z,100289.72
2022-12-14T09:26:14.454Z,100304.34
2022-12-14T09:28:44.677Z,100308.88
2022-12-14T09:31:13.983Z,100312.47
2022-12-14T09:33:41.752Z,100312.16
2022-12-14T09:36:21.656Z,100297.56
2022-12-14T09:38:55.194Z,100298.56
2022-12-14T09:41:22.662Z,100313.06
2022-12-14T09:43:56.862Z,100318.34
2022-12-14T09:46:50.022Z,100297.41
2022-12-14T09:49:32.382Z,100314.00
2022-12-14T09:52:04.433Z,100301.75
2022-12-14T09:54:37.067Z,100296.13
2022-12-14T09:57:29.418Z,100302.53
2022-12-14T09:59:56.779Z,100304.41
2022-12-14T10:02:31.508Z,100307.47
2022-12-14T10:05:11.429Z,100303.50
2022-12-14T10:07:56.689Z,100302.84
2022-12-14T10:10:50.865Z,100306.63
2022-12-14T10:13:23.110Z,100307.81
2022-12-14T10:15:56.087Z,100303.88
2022-12-14T10:19:03.199Z,100288.06
2022-12-14T10:21:57.635Z,100287.31
2022-12-14T10:24:31.180Z,100299.94
2022-12-14T10:26:58.683Z,100296.63
2022-12-14T10:29:32.325Z,100291.25
2022-12-14T10:32:06.218Z,100280.91
2022-12-14T10:34:35.340Z,100270.94
2022-12-14T10:37:12.117Z,100267.84
2022-12-14T10:39:57.515Z,100277.19
2022-12-14T10:42:42.500Z,100278.94
2022-12-14T10:45:40.121Z,100275.84
2022-12-14T10:48:17.492Z,100260.69
2022-12-14T10:50:57.703Z,100266.38
2022-12-14T10:53:47.805Z,100275.16
2022-12-14T10:56:25.526Z,100263.59
2022-12-14T10:59:20.662Z,100265.69
2022-12-14T11:02:00.878Z,100265.13
2022-12-14T11:04:32.117Z,100251.06
2022-12-14T11:07:02.093Z,100256.63
2022-12-14T11:09:29.863Z,100260.22
2022-12-14T11:12:03.949Z,100260.75
2022-12-14T11:14:32.334Z,100263.59
2022-12-14T11:16:59.654Z,100245.59
2022-12-14T11:19:28.258Z,100256.44
2022-12-14T11:22:20.144Z,100243.31
2022-12-14T11:24:49.284Z,100249.47
2022-12-14T11:27:21.393Z,100259.66
2022-12-14T11:29:50.752Z,100259.97
2022-12-14T11:32:25.257Z,100259.53
2022-12-14T11:34:59.049Z,100260.78
2022-12-14T11:37:31.563Z,100265.59
2022-12-14T11:40:01.515Z,100252.44
2022-12-14T11:42:28.796Z,100245.94
2022-12-14T11:45:27.707Z,100251.50
2022-12-14T11:48:13.266Z,100259.47
2022-12-14T11:50:41.848Z,100255.50
2022-12-14T11:53:14.737Z,100253.94
2022-12-14T11:56:12.803Z,100257.06
2022-12-14T11:58:49.303Z,100236.69
2022-12-14T12:01:19.512Z,100242.16
2022-12-14T12:03:52.129Z,100253.94
2022-12-14T12:06:22.602Z,100248.59
2022-12-14T12:09:11.483Z,100246.16
2022-12-14T12:11:45.264Z,100251.69
2022-12-14T12:14:29.463Z,100254.34
2022-12-14T12:16:57.900Z,100252.75
2022-12-14T12:19:30.705Z,100240.97
2022-12-14T12:22:00.868Z,100254.53
2022-12-14T12:25:25.019Z,100264.03
2022-12-14T12:27:56.954Z,100251.59
2022-12-14T12:30:30.467Z,100245.63
2022-12-14T12:33:21.795Z,100258.94
2022-12-14T12:35:57.444Z,100262.53
2022-12-14T12:38:36.941Z,100268.78
2022-12-14T12:41:21.639Z,100271.00
2022-12-14T12:43:54.545Z,100269.53
2022-12-14T12:46:28.314Z,100281.78
2022-12-14T12:49:15.814Z,100271.72
2022-12-14T12:51:51.505Z,100279.63
2022-12-14T12:54:24.588Z,100274.47
2022-12-14T12:56:55.847Z,100265.88
2022-12-14T12:59:37.092Z,100274.81
2022-12-14T13:02:42.813Z,100269.66
2022-12-14T13:08:26.784Z,100278.25
2022-12-14T13:11:25.234Z,100270.66
2022-12-14T13:14:02.320Z,100263.19
2022-12-14T13:16:38.021Z,100272.34
2022-12-14T13:19:54.456Z,100269.09
2022-12-14T13:22:33.571Z,100273.47
2022-12-14T13:25:12.569Z,100277.84
2022-12-14T13:28:11.284Z,100274.63
2022-12-14T13:31:03.154Z,100279.00
2022-12-14T13:34:15.205Z,100274.13
2022-12-14T13:37:01.228Z,100281.13
2022-12-14T13:40:02.479Z,100276.66
2022-12-14T13:42:57.812Z,100273.91
2022-12-14T13:45:32.216Z,100273.13
2022-12-14T13:47:59.674Z,100266.16
2022-12-14T13:50:36.608Z,100265.53
2022-12-14T13:53:21.476Z,100269.66
2022-12-14T13:55:54.495Z,100261.66
2022-12-14T13:58:39.406Z,100267.91
2022-12-14T14:01:11.808Z,100267.97
2022-12-14T14:03:38.906Z,100267.72
2022-12-14T14:06:09.229Z,100269.19
2022-12-14T14:08:42.080Z,100269.09
2022-12-14T14:14:27.163Z,100256.06
2022-12-14T14:17:03.354Z,100259.47
2022-12-14T14:19:37.422Z,100266.63
2022-12-14T14:22:26.417Z,100269.63
2022-12-14T14:24:56.208Z,100277.22
2022-12-14T14:27:50.596Z,100285.53
2022-12-14T14:30:28.505Z,100273.63
2022-12-14T14:33:07.655Z,100270.31
2022-12-14T14:35:40.507Z,100283.63
2022-12-14T14:38:26.031Z,100279.41
2022-12-14T14:41:16.628Z,100279.00
2022-12-14T14:43:52.150Z,100287.84
2022-12-14T14:46:23.430Z,100272.44
2022-12-14T14:48:54.458Z,100293.19
2022-12-14T14:51:30.074Z,100279.81
2022-12-14T14:55:03.479Z,100299.03
2022-12-14T14:57:56.534Z,100291.38
2022-12-14T15:00:23.686Z,100305.63
2022-12-14T15:02:53.425Z,100308.41
2022-12-14T15:05:42.024Z,100306.06
2022-12-14T15:08:20.750Z,100306.50
2022-12-14T15:10:50.156Z,100305.81
2022-12-14T15:13:23.141Z,100315.75
2022-12-14T15:15:53.447Z,100311.88
2022-12-14T15:18:23.566Z,100313.16
2022-12-14T15:20:59.476Z,100317.66
2022-12-14T15:23:34.725Z,100322.13
2022-12-14T15:26:14.636Z,100313.56
2022-12-14T15:28:47.607Z,100308.66
2022-12-14T15:31:15.105Z,100314.13
2022-12-14T15:33:43.610Z,100314.72
2022-12-14T15:36:16.265Z,100304.06
2022-12-14T15:38:54.777Z,100316.53
2022-12-14T15:41:24.305Z,100322.50
2022-12-14T15:43:55.129Z,100326.91
2022-12-14T15:46:26.949Z,100328.16
2022-12-14T15:49:04.020Z,100319.84
2022-12-14T15:51:41.170Z,100325.28
2022-12-14T15:54:16.061Z,100318.25
2022-12-14T15:56:53.669Z,100315.00
2022-12-14T15:59:28.421Z,100324.25
2022-12-14T16:02:06.708Z,100322.94
2022-12-14T16:04:37.905Z,100331.97
2022-12-14T16:07:39.291Z,100320.53
2022-12-14T16:10:28.525Z,100329.13
2022-12-14T16:13:03.793Z,100331.13
2022-12-14T16:15:31.680Z,100338.72
2022-12-14T16:18:02.743Z,100337.59
2022-12-14T16:20:37.740Z,100330.25
2022-12-14T16:23:13.299Z,100334.31
2022-12-14T16:26:01.131Z,100336.66
2022-12-14T16:28:28.140Z,100354.13
2022-12-14T16:31:01.640Z,100341.84
2022-12-14T16:33:30.808Z,100344.34
2022-12-14T16:36:01.781Z,100337.88
2022-12-14T16:38:30.188Z,100350.06
2022-12-14T16:41:01.042Z,100340.31
2022-12-14T16:43:38.374Z,100345.03
2022-12-14T16:46:06.285Z,100356.13
2022-12-14T16:48:36.976Z,100351.41
2022-12-14T16:51:37.870Z,100359.97
2022-12-14T16:54:23.775Z,100347.66
2022-12-14T16:57:07.309Z,100359.19
2022-12-14T16:59:45.603Z,100360.19
2022-12-14T17:02:34.536Z,100361.72
2022-12-14T17:05:17.667Z,100358.00
2022-12-14T17:07:45.015Z,100356.66
2022-12-14T17:10:17.988Z,100353.19
2022-12-14T17:12:45.280Z,100350.31
2022-12-14T17:15:14.268Z,100347.56
2022-12-14T17:17:41.840Z,100356.56
2022-12-14T17:20:21.217Z,100353.84
2022-12-14T17:22:49.445Z,100349.88
2022-12-14T17:25:17.464Z,100353.28
2022-12-14T17:27:44.561Z,100364.22
2022-12-14T17:30:16.677Z,100359.97
2022-12-14T17:32:45.040Z,100342.50
2022-12-14T17:35:20.843Z,100358.22
2022-12-14T17:37:48.323Z,100358.31
2022-12-14T17:40:16.741Z,100353.16
2022-12-14T17:42:49.385Z,100355.78
2022-12-14T17:45:20.693Z,100354.69
2022-12-14T17:47:48.337Z,100357.78
2022-12-14T17:50:17.257Z,100351.50
2022-12-14T17:52:45.500Z,100356.22
2022-12-14T17:55:18.944Z,100352.38
2022-12-14T17:57:46.394Z,100367.63
2022-12-14T18:00:36.955Z,100361.72
2022-12-14T18:03:06.529Z,100364.84
2022-12-14T18:05:33.935Z,100362.34
2022-12-14T18:08:01.135Z,100366.81
2022-12-14T18:10:28.862Z,100359.16
2022-12-14T18:12:56.354Z,100354.63
2022-12-14T18:15:28.502Z,100369.66
2022-12-14T18:17:55.997Z,100383.38
2022-12-14T18:20:24.114Z,100380.16
2022-12-14T18:22:52.090Z,100378.75
2022-12-14T18:25:40.917Z,100374.13
2022-12-14T18:28:10.783Z,100370.50
2022-12-14T18:30:47.552Z,100375.88
2022-12-14T18:33:23.253Z,100374.88
2022-12-14T18:35:51.760Z,100370.38
2022-12-14T18:38:19.185Z,100381.78
2022-12-14T18:40:49.629Z,100378.00
2022-12-14T18:43:23.373Z,100377.16
2022-12-14T18:45:52.244Z,100386.59
2022-12-14T18:48:20.318Z,100373.78
2022-12-14T18:50:49.732Z,100379.91
2022-12-14T18:53:19.074Z,100385.38
2022-12-14T18:55:47.037Z,100381.34
2022-12-14T18:58:22.306Z,100388.66
2022-12-14T19:00:51.910Z,100394.47
2022-12-14T19:03:19.227Z,100383.66
2022-12-14T19:05:47.249Z,100388.72
2022-12-14T19:08:14.570Z,100380.19
2022-12-14T19:10:46.082Z,100391.59
2022-12-14T19:13:26.024Z,100378.63
2022-12-14T19:15:54.633Z,100394.84
2022-12-14T19:18:21.949Z,100396.63
2022-12-14T19:20:49.550Z,100405.72
2022-12-14T19:23:18.979Z,100405.59
2022-12-14T19:25:47.206Z,100404.72
2022-12-14T19:28:31.589Z,100414.69
2022-12-14T19:31:01.196Z,100400.75
2022-12-14T19:33:29.160Z,100409.41
2022-12-14T19:35:56.512Z,100401.50
2022-12-14T19:38:23.529Z,100403.25
2022-12-14T19:41:20.087Z,100399.63
2022-12-14T19:43:47.504Z,100398.63
2022-12-14T19:46:15.722Z,100405.31
2022-12-14T19:48:44.578Z,100421.06
2022-12-14T19:51:13.516Z,100421.53
2022-12-14T19:53:44.899Z,100414.47
2022-12-14T19:56:16.790Z,100407.97
2022-12-14T19:58:44.989Z,100423.69
2022-12-14T20:01:15.274Z,100424.94
2022-12-14T20:03:42.857Z,100427.47
2022-12-14T20:06:09.998Z,100438.09
2022-12-14T20:08:37.654Z,100434.81
2022-12-14T20:11:10.995Z,100437.53
2022-12-14T20:13:38.482Z,100440.59
2022-12-14T20:16:15.608Z,100431.28
2022-12-14T20:18:43.074Z,100439.44
2022-12-14T20:21:14.993Z,100445.34
2022-12-14T20:23:49.087Z,100438.09
2022-12-14T20:26:18.315Z,100447.88
2022-12-14T20:28:50.328Z,100446.47
2022-12-14T20:31:18.254Z,100456.66
2022-12-14T20:33:45.625Z,100454.03
2022-12-14T20:36:13.424Z,100449.66
2022-12-14T20:38:41.185Z,100449.75
2022-12-14T20:41:13.513Z,100460.84
2022-12-14T20:43:43.439Z,100456.44
2022-12-14T20:46:31.530Z,100469.28
2022-12-14T20:49:03.728Z,100472.78
2022-12-14T20:51:32.912Z,100454.78
2022-12-14T20:54:00.867Z,100459.34
2022-12-14T20:56:28.567Z,100468.34
2022-12-14T20:58:56.057Z,100466.78
2022-12-14T21:01:23.487Z,100445.16
2022-12-14T21:03:51.179Z,100472.66
2022-12-14T21:06:21.266Z,100472.91
2022-12-14T21:09:07.369Z,100467.63
2022-12-14T21:11:58.341Z,100477.78
2022-12-14T21:14:31.081Z,100486.81
2022-12-14T21:16:59.118Z,100486.66
2022-12-14T21:19:26.433Z,100476.13
2022-12-14T21:21:54.369Z,100476.94
2022-12-14T21:25:00.495Z,100480.63
2022-12-14T21:27:18.065Z,100472.91
2022-12-14T21:29:45.897Z,100483.00
2022-12-14T21:32:14.116Z,100472.69
2022-12-14T21:34:42.548Z,100465.63
2022-12-14T21:37:10.117Z,100464.53
2022-12-14T21:39:37.560Z,100472.22
2022-12-14T21:42:12.875Z,100476.13
2022-12-14T21:44:44.815Z,100492.38
2022-12-14T21:47:24.110Z,100487.13
2022-12-14T21:49:51.467Z,100489.41
2022-12-14T21:52:21.325Z,100488.91
2022-12-14T21:54:48.569Z,100483.72
2022-12-14T21:57:37.032Z,100473.69
2022-12-14T22:00:07.568Z,100489.41
2022-12-14T22:02:34.893Z,100488.28
2022-12-14T22:05:02.241Z,100487.53
2022-12-14T22:07:32.222Z,100489.94
2022-12-14T22:09:59.378Z,100487.28
2022-12-14T22:12:27.043Z,100485.19
2022-12-14T22:14:54.045Z,100486.97
2022-12-14T22:17:21.149Z,100482.31
2022-12-14T22:19:48.909Z,100501.31
2022-12-14T22:22:16.693Z,100486.00
2022-12-14T22:24:45.085Z,100501.09
2022-12-14T22:27:12.976Z,100497.81
2022-12-14T22:29:40.266Z,100499.56
2022-12-14T22:32:07.692Z,100504.63
2022-12-14T22:34:35.470Z,100477.97
2022-12-14T22:37:02.608Z,100504.00
2022-12-14T22:39:29.753Z,100510.72
2022-12-14T22:41:57.080Z,100512.31
2022-12-14T22:44:24.294Z,100512.22
2022-12-14T22:46:51.274Z,100526.34
2022-12-14T22:49:19.695Z,100522.97
2022-12-14T22:51:46.850Z,100510.38
2022-12-14T22:54:32.579Z,100516.78
2022-12-14T22:57:10.204Z,100513.81
2022-12-14T22:59:48.196Z,100515.69
2022-12-14T23:02:15.819Z,100509.88
2022-12-14T23:04:43.016Z,100509.63
2022-12-14T23:07:10.099Z,100522.69
2022-12-14T23:09:55.455Z,100524.06
2022-12-14T23:12:40.991Z,100530.22
2022-12-14T23:15:27.351Z,100522.56
2022-12-14T23:18:14.146Z,100512.88
2022-12-14T23:20:59.600Z,100516.50
2022-12-14T23:23:45.012Z,100514.38
2022-12-14T23:26:30.938Z,100526.59
2022-12-14T23:29:16.427Z,100515.88
2022-12-14T23:32:01.711Z,100527.34
2022-12-14T23:34:47.910Z,100522.97
2022-12-14T23:37:34.085Z,100532.16
2022-12-14T23:40:19.535Z,100537.31
2022-12-14T23:43:06.052Z,100534.91
2022-12-14T23:45:51.462Z,100552.19
2022-12-14T23:48:37.041Z,100549.69
2022-12-14T23:51:22.986Z,100558.91
2022-12-14T23:54:08.900Z,100566.22
2022-12-14T23:56:57.655Z,100545.31
2022-12-14T23:59:43.031Z,100551.38
